Time;durP1;ratioP1;P1;durP2;ratioP2;P2;SDS_P1;SDS_P2;PMS_P1;PMS_P2;Temp;Humidity;BMP_temperature;BMP_pressure;BME280_temperature;BME280_humidity;BME280_pressure;Samples;Min_cycle;Max_cycle;Signal;HPM_P1;HPM_P2
2021/04/08 00:02:01;;;;;;;6.90;4.87;;;;;;;3.16;67.58;99802.34;5063294;27;97236;-73
2021/04/08 00:04:27;;;;;;;7.67;4.73;;;;;;;3.20;67.58;99800.59;5031999;27;101130;-73
2021/04/08 00:06:53;;;;;;;9.90;5.07;;;;;;;3.22;67.27;99797.97;5016015;27;101515;-73
2021/04/08 00:09:18;;;;;;;7.70;4.57;;;;;;;3.17;67.09;99795.44;5031626;27;97476;-73
2021/04/08 00:11:44;;;;;;;6.83;5.07;;;;;;;3.26;66.69;99805.72;5033271;27;97345;-74
2021/04/08 00:14:10;;;;;;;7.47;5.60;;;;;;;3.29;66.63;99812.59;5050433;27;101444;-73
2021/04/08 00:16:35;;;;;;;7.70;5.03;;;;;;;3.23;67.48;99802.28;5015005;27;100959;-73
2021/04/08 00:19:01;;;;;;;8.00;5.53;;;;;;;3.21;66.87;99807.50;5034970;27;97431;-72
2021/04/08 00:21:27;;;;;;;7.73;5.73;;;;;;;3.19;67.70;99811.84;5021801;27;99748;-72
2021/04/08 00:23:52;;;;;;;9.87;5.63;;;;;;;3.23;67.39;99810.06;5044132;27;101456;-73
2021/04/08 00:26:19;;;;;;;8.50;5.70;;;;;;;3.28;67.49;99809.13;5044280;27;100598;-75
2021/04/08 00:28:44;;;;;;;8.87;5.60;;;;;;;3.29;68.05;99817.78;5020827;27;97061;-75
2021/04/08 00:31:10;;;;;;;9.20;5.73;;;;;;;3.29;68.17;99812.59;5048934;27;99616;-73
2021/04/08 00:33:35;;;;;;;10.43;6.20;;;;;;;3.30;69.09;99816.91;5031990;27;101357;-73
2021/04/08 00:36:01;;;;;;;8.10;6.33;;;;;;;3.30;68.99;99812.56;5030266;27;100590;-73
2021/04/08 00:38:26;;;;;;;8.03;6.07;;;;;;;3.26;69.86;99812.63;5047357;27;97141;-73
2021/04/08 00:40:52;;;;;;;8.87;6.17;;;;;;;3.29;69.37;99820.41;5044770;27;97371;-75
2021/04/08 00:43:18;;;;;;;7.07;5.33;;;;;;;3.32;69.98;99817.75;5029596;27;101172;-73
2021/04/08 00:45:44;;;;;;;6.93;5.20;;;;;;;3.30;70.58;99822.09;5014081;27;99791;-73
2021/04/08 00:48:10;;;;;;;5.97;5.17;;;;;;;3.34;70.26;99818.56;5042900;27;97065;-73
2021/04/08 00:50:37;;;;;;;6.17;4.67;;;;;;;3.31;70.03;99824.66;5047192;27;98037;-73
2021/04/08 00:53:07;;;;;;;6.43;4.97;;;;;;;3.34;70.53;99829.81;5037497;27;101135;-73
2021/04/08 00:55:37;;;;;;;5.97;4.90;;;;;;;3.33;70.71;99832.44;5045171;27;98255;-75
2021/04/08 00:58:04;;;;;;;5.23;4.50;;;;;;;3.39;70.69;99832.34;5046981;27;97003;-73
2021/04/08 01:00:31;;;;;;;5.90;4.63;;;;;;;3.38;70.52;99828.91;5023402;27;97380;-73
2021/04/08 01:02:57;;;;;;;5.13;4.37;;;;;;;3.40;70.43;99829.75;5049572;27;101386;-75
2021/04/08 01:05:23;;;;;;;6.40;4.50;;;;;;;3.43;69.59;99836.63;5050377;27;98346;-75
2021/04/08 01:07:49;;;;;;;5.97;4.43;;;;;;;3.40;70.24;99829.75;5055270;27;96906;-74
2021/04/08 01:10:16;;;;;;;5.10;4.60;;;;;;;3.40;69.77;99837.53;5048416;27;99428;-73
2021/04/08 01:12:41;;;;;;;5.73;4.87;;;;;;;3.37;70.65;99844.47;5028293;27;101284;-73
2021/04/08 01:15:08;;;;;;;5.87;5.13;;;;;;;3.42;70.76;99836.66;5025319;27;101212;-75
2021/04/08 01:17:43;;;;;;;6.50;5.17;;;;;;;3.40;70.84;99847.91;5031903;27;97116;-76
2021/04/08 01:20:48;;;;;;;5.73;4.97;;;;;;;3.35;70.88;99846.25;5050782;27;97177;-73
2021/04/08 01:23:51;;;;;;;6.83;5.57;;;;;;;3.40;70.35;99845.31;5043438;27;99321;-75
2021/04/08 01:26:47;;;;;;;6.80;5.57;;;;;;;3.42;70.36;99841.84;5032790;27;101123;-73
2021/04/08 01:29:16;;;;;;;9.63;6.60;;;;;;;3.42;70.29;99842.69;5049437;27;99160;-74
2021/04/08 01:31:43;;;;;;;8.07;5.83;;;;;;;3.38;70.46;99839.28;5039414;27;97478;-73
2021/04/08 01:34:12;;;;;;;9.37;6.33;;;;;;;3.44;70.63;99840.09;5022869;27;103346;-73
2021/04/08 01:36:40;;;;;;;7.93;6.00;;;;;;;3.39;70.50;99843.59;5017979;27;101149;-73
2021/04/08 01:39:08;;;;;;;8.97;6.27;;;;;;;3.35;70.42;99844.50;5042823;27;97373;-73
2021/04/08 01:41:38;;;;;;;8.57;6.00;;;;;;;3.35;70.18;99846.25;5040309;27;97491;-75
2021/04/08 01:44:05;;;;;;;7.10;5.47;;;;;;;3.34;70.12;99853.16;5028774;27;99948;-73
2021/04/08 01:46:34;;;;;;;7.67;5.73;;;;;;;3.37;70.53;99854.84;5042936;27;101022;-75
2021/04/08 01:49:01;;;;;;;6.70;6.00;;;;;;;3.38;70.32;99854.84;5025865;27;97301;-73
2021/04/08 01:51:27;;;;;;;8.87;5.63;;;;;;;3.37;69.97;99858.34;5047874;27;99097;-73
2021/04/08 01:53:57;;;;;;;6.93;5.53;;;;;;;3.36;70.45;99859.19;5049438;27;100838;-76
2021/04/08 01:56:27;;;;;;;8.83;6.17;;;;;;;3.39;69.74;99859.16;5048814;27;101714;-73
2021/04/08 01:58:53;;;;;;;8.87;6.03;;;;;;;3.34;70.38;99873.06;5026807;27;97441;-73
2021/04/08 02:01:19;;;;;;;9.20;5.70;;;;;;;3.34;69.94;99865.28;5016525;27;97556;-73
2021/04/08 02:03:46;;;;;;;9.53;5.93;;;;;;;3.31;69.69;99865.31;5024147;27;101594;-73
2021/04/08 02:06:12;;;;;;;8.47;5.77;;;;;;;3.34;70.21;99871.31;5047152;27;100648;-74
2021/04/08 02:08:40;;;;;;;6.17;5.57;;;;;;;3.37;69.76;99862.66;5022567;27;96960;-74
2021/04/08 02:11:09;;;;;;;6.30;5.60;;;;;;;3.36;69.86;99864.38;5029842;27;97204;-75
2021/04/08 02:13:36;;;;;;;6.67;5.10;;;;;;;3.44;69.47;99871.22;5036407;27;101130;-76
2021/04/08 02:16:01;;;;;;;6.87;5.83;;;;;;;3.41;69.35;99866.94;5036156;27;102125;-75
2021/04/08 02:18:28;;;;;;;6.57;5.37;;;;;;;3.41;69.64;99874.72;5043772;27;97402;-73
2021/04/08 02:20:55;;;;;;;8.37;5.57;;;;;;;3.41;69.62;99877.31;5037801;27;97240;-73
2021/04/08 02:23:24;;;;;;;10.93;6.13;;;;;;;3.44;69.15;99873.84;5031378;27;101499;-73
2021/04/08 02:25:50;;;;;;;9.63;6.37;;;;;;;3.47;69.21;99887.63;5017914;27;101186;-73
2021/04/08 02:28:17;;;;;;;8.73;5.83;;;;;;;3.46;69.23;99893.69;5023811;27;98321;-73
2021/04/08 02:30:47;;;;;;;7.47;5.70;;;;;;;3.45;68.88;99886.78;5030750;27;96868;-73
2021/04/08 02:33:25;;;;;;;9.07;5.50;;;;;;;3.45;68.79;99893.69;5028503;27;101123;-73
2021/04/08 02:35:52;;;;;;;9.80;5.73;;;;;;;3.43;68.81;99891.09;5048066;27;97798;-73
2021/04/08 02:38:19;;;;;;;8.37;5.03;;;;;;;3.43;69.05;99892.84;5022740;27;96808;-73
2021/04/08 02:40:44;;;;;;;7.67;5.10;;;;;;;3.46;68.86;99893.69;5017955;27;97044;-74
2021/04/08 02:43:10;;;;;;;7.27;5.10;;;;;;;3.42;68.73;99901.53;5056503;27;98288;-72
2021/04/08 02:45:37;;;;;;;10.10;5.40;;;;;;;3.43;68.69;99906.69;5048132;27;99390;-77
2021/04/08 02:48:08;;;;;;;10.10;5.20;;;;;;;3.43;68.70;99911.88;5035465;27;96847;-73
2021/04/08 02:50:34;;;;;;;10.68;5.35;;;;;;;3.45;68.26;99914.47;5048773;27;96884;-76
2021/04/08 02:53:10;;;;;;;8.87;5.07;;;;;;;3.39;69.09;99916.25;5054274;27;101768;-75
2021/04/08 02:55:44;;;;;;;10.30;4.53;;;;;;;3.45;68.30;99910.13;5028418;27;100923;-79
2021/04/08 02:58:12;;;;;;;12.33;5.87;;;;;;;3.44;68.33;99920.53;5045995;27;96958;-72
2021/04/08 03:00:43;;;;;;;10.13;5.17;;;;;;;3.40;68.57;99919.69;5038958;27;97457;-75
2021/04/08 03:03:11;;;;;;;10.13;4.88;;;;;;;3.45;68.33;99932.63;5036650;27;97365;-72
2021/04/08 03:05:42;;;;;;;8.57;4.30;;;;;;;3.51;67.66;99930.81;5051080;27;100581;-76
2021/04/08 03:08:09;;;;;;;7.73;5.00;;;;;;;3.51;67.65;99936.00;5015890;27;99830;-72
2021/04/08 03:10:36;;;;;;;8.93;4.80;;;;;;;3.48;68.02;99937.78;5022738;27;97480;-76
2021/04/08 03:13:03;;;;;;;7.53;3.90;;;;;;;3.46;67.48;99939.53;5018649;27;101217;-77
2021/04/08 03:15:32;;;;;;;13.10;5.53;;;;;;;3.48;67.46;99941.22;5021289;27;101900;-73
2021/04/08 03:17:59;;;;;;;9.73;4.30;;;;;;;3.48;67.48;99954.22;5037604;27;97328;-73
2021/04/08 03:20:26;;;;;;;10.27;4.33;;;;;;;3.45;68.05;99959.44;5024655;27;97340;-73
2021/04/08 03:22:52;;;;;;;12.63;4.47;;;;;;;3.43;67.97;99960.31;5047493;27;98065;-73
2021/04/08 03:25:19;;;;;;;11.53;4.13;;;;;;;3.37;67.52;99966.44;5051027;27;98413;-73
2021/04/08 03:27:45;;;;;;;9.97;4.03;;;;;;;3.38;67.33;99960.38;5022610;27;99262;-73
2021/04/08 03:30:13;;;;;;;15.07;3.70;;;;;;;3.36;66.91;99967.31;5027857;27;97109;-73
2021/04/08 03:32:39;;;;;;;7.07;3.23;;;;;;;3.36;66.54;99962.13;5029024;27;101483;-77
2021/04/08 03:35:08;;;;;;;12.30;3.30;;;;;;;3.32;66.30;99966.50;5025339;27;103423;-73
2021/04/08 03:37:34;;;;;;;12.47;4.27;;;;;;;3.27;66.63;99968.28;5016830;27;96799;-73
2021/04/08 03:40:02;;;;;;;9.00;3.97;;;;;;;3.32;65.71;99973.44;5026654;27;97351;-72
2021/04/08 03:42:28;;;;;;;11.00;3.90;;;;;;;3.28;66.17;99979.50;5034420;27;100938;-73
2021/04/08 03:44:54;;;;;;;18.10;3.80;;;;;;;3.30;65.85;99975.16;5015737;27;101141;-73
2021/04/08 03:47:21;;;;;;;13.23;3.40;;;;;;;3.29;65.72;99986.44;4998937;27;97136;-73
2021/04/08 03:49:49;;;;;;;8.10;3.40;;;;;;;3.24;65.76;99994.25;5028521;27;96892;-73
2021/04/08 03:52:15;;;;;;;6.37;2.93;;;;;;;3.17;65.88;99992.56;5030273;27;99189;-74
2021/04/08 03:54:42;;;;;;;7.43;3.47;;;;;;;3.17;66.43;99997.75;5021116;28;101208;-74
2021/04/08 03:57:11;;;;;;;10.93;4.10;;;;;;;3.17;66.34;100000.34;5025723;27;97326;-74
2021/04/08 03:59:39;;;;;;;7.33;2.93;;;;;;;3.16;65.75;100004.69;5015251;27;97331;-75
2021/04/08 04:02:04;;;;;;;9.27;3.27;;;;;;;3.14;66.08;100013.34;5030638;27;101684;-75
2021/04/08 04:04:30;;;;;;;9.43;3.17;;;;;;;3.16;65.88;100014.19;5000173;27;100946;-72
2021/04/08 04:06:56;;;;;;;8.13;3.43;;;;;;;3.17;65.76;100018.50;5042253;27;97422;-73
2021/04/08 04:09:22;;;;;;;10.33;3.63;;;;;;;3.13;65.87;100016.81;5000469;27;97444;-73
2021/04/08 04:11:49;;;;;;;13.87;4.47;;;;;;;3.08;66.46;100023.78;5004787;27;101523;-74
2021/04/08 04:14:16;;;;;;;11.83;3.40;;;;;;;3.12;66.46;100028.94;5006470;27;101545;-72
2021/04/08 04:16:47;;;;;;;6.73;3.40;;;;;;;3.10;66.70;100032.41;4995482;27;96839;-73
2021/04/08 04:19:13;;;;;;;6.93;3.50;;;;;;;3.06;66.52;100025.53;5038807;27;97437;-73
2021/04/08 04:21:39;;;;;;;8.50;4.17;;;;;;;3.08;66.07;100039.34;5044066;27;102063;-76
2021/04/08 04:24:06;;;;;;;17.33;4.10;;;;;;;3.13;66.54;100040.16;4999466;27;102171;-73
2021/04/08 04:26:32;;;;;;;11.87;3.77;;;;;;;3.14;66.09;100049.66;5026707;27;97422;-73
2021/04/08 04:28:57;;;;;;;10.63;4.20;;;;;;;3.17;66.21;100047.03;5021994;27;99203;-73
2021/04/08 04:31:23;;;;;;;13.83;4.30;;;;;;;3.18;66.21;100048.78;5039441;27;99602;-75
2021/04/08 04:33:49;;;;;;;11.63;5.53;;;;;;;3.20;66.03;100052.22;5036695;27;101299;-73
2021/04/08 04:36:14;;;;;;;9.60;3.87;;;;;;;3.29;66.56;100053.88;5003507;27;97148;-72
2021/04/08 04:38:40;;;;;;;10.47;4.00;;;;;;;3.28;65.52;100046.94;5000536;27;97533;-74
2021/04/08 04:41:06;;;;;;;11.17;5.43;;;;;;;3.29;65.93;100059.94;5018773;27;98542;-73
2021/04/08 04:43:31;;;;;;;10.50;5.60;;;;;;;3.28;65.13;100060.78;5031148;27;101125;-73
2021/04/08 04:45:57;;;;;;;10.43;4.00;;;;;;;3.32;65.36;100066.84;5035283;27;97443;-73
2021/04/08 04:48:23;;;;;;;9.33;4.40;;;;;;;3.33;65.42;100072.00;5056601;27;97273;-73
2021/04/08 04:50:51;;;;;;;9.63;3.73;;;;;;;3.35;64.67;100064.22;5039443;27;101407;-73
2021/04/08 04:53:16;;;;;;;12.67;3.77;;;;;;;3.37;64.73;100068.50;5044007;27;98520;-73
2021/04/08 04:55:42;;;;;;;13.27;3.63;;;;;;;3.43;63.89;100071.91;5022000;27;97131;-73
2021/04/08 04:58:09;;;;;;;11.33;3.20;;;;;;;3.36;64.23;100071.97;5041734;27;97403;-73
2021/04/08 05:00:34;;;;;;;11.53;4.20;;;;;;;3.43;63.64;100072.75;5036312;27;100814;-73
2021/04/08 05:03:00;;;;;;;6.70;2.77;;;;;;;3.51;63.45;100080.50;5022857;27;100875;-72
2021/04/08 05:05:26;;;;;;;9.00;3.50;;;;;;;3.62;63.26;100078.66;5039595;27;96899;-76
2021/04/08 05:07:51;;;;;;;11.50;3.27;;;;;;;3.70;63.72;100086.38;5024247;27;97228;-76
2021/04/08 05:10:17;;;;;;;12.83;3.53;;;;;;;3.84;62.88;100081.91;5048776;27;100738;-74
2021/04/08 05:12:43;;;;;;;12.20;3.70;;;;;;;4.00;62.82;100087.78;5019487;27;102024;-74
2021/04/08 05:15:09;;;;;;;10.67;3.27;;;;;;;4.21;62.17;100092.72;5024300;27;97467;-74
2021/04/08 05:17:34;;;;;;;9.00;2.70;;;;;;;4.35;61.60;100089.13;5024134;27;99559;-75
2021/04/08 05:20:01;;;;;;;7.23;3.33;;;;;;;4.65;60.71;100088.72;5028839;27;100959;-75
2021/04/08 05:22:27;;;;;;;8.00;2.67;;;;;;;4.83;59.63;100091.94;5047677;27;99654;-76
2021/04/08 05:24:53;;;;;;;12.60;4.50;;;;;;;4.69;59.82;100099.97;5046017;27;99656;-74
2021/04/08 05:27:19;;;;;;;13.63;4.23;;;;;;;4.59;60.21;100104.41;5041855;27;98284;-74
2021/04/08 05:29:44;;;;;;;10.67;3.57;;;;;;;4.61;60.30;100102.66;5050918;27;99772;-74
2021/04/08 05:32:10;;;;;;;10.63;3.53;;;;;;;4.74;59.60;100101.63;5026498;27;101477;-75
2021/04/08 05:34:35;;;;;;;9.70;3.60;;;;;;;4.83;59.14;100105.84;5028503;27;97383;-75
2021/04/08 05:37:01;;;;;;;9.33;3.00;;;;;;;4.85;59.13;100116.19;5019644;27;99492;-74
2021/04/08 05:39:28;;;;;;;8.53;2.87;;;;;;;5.18;58.73;100125.28;5024198;27;101248;-74
2021/04/08 05:41:55;;;;;;;11.63;3.20;;;;;;;5.49;57.74;100133.44;5032187;27;102236;-74
2021/04/08 05:44:21;;;;;;;11.00;3.13;;;;;;;5.60;57.11;100135.88;5030221;27;96878;-74
2021/04/08 05:46:46;;;;;;;7.87;3.27;;;;;;;5.71;57.16;100128.75;5021255;27;97301;-74
2021/04/08 05:49:12;;;;;;;6.70;2.83;;;;;;;5.71;56.78;100130.50;5031663;27;101353;-73
2021/04/08 05:51:38;;;;;;;11.90;3.40;;;;;;;5.84;56.40;100140.66;5060581;27;99498;-74
2021/04/08 05:54:06;;;;;;;11.30;3.57;;;;;;;6.35;56.42;100142.38;5048385;27;96754;-74
2021/04/08 05:56:32;;;;;;;7.67;3.10;;;;;;;6.78;55.11;100144.13;5048052;27;96930;-75
2021/04/08 05:58:58;;;;;;;14.73;4.50;;;;;;;7.18;53.06;100146.69;5042312;27;100839;-72
2021/04/08 06:01:23;;;;;;;11.73;4.03;;;;;;;7.67;52.41;100153.34;5049876;27;97927;-72
2021/04/08 06:03:49;;;;;;;13.00;4.00;;;;;;;8.67;50.94;100155.09;5050562;27;97492;-72
2021/04/08 06:06:14;;;;;;;12.17;3.97;;;;;;;8.45;51.05;100155.72;5031107;27;97482;-72
2021/04/08 06:08:40;;;;;;;7.57;3.50;;;;;;;8.01;51.93;100157.72;5021555;27;99768;-75
2021/04/08 06:11:05;;;;;;;11.70;3.60;;;;;;;7.43;52.60;100164.41;5028913;27;100758;-73
2021/04/08 06:13:31;;;;;;;10.67;3.77;;;;;;;7.00;53.12;100165.38;5033933;27;97162;-75
2021/04/08 06:15:57;;;;;;;12.20;3.57;;;;;;;6.45;54.53;100169.13;5042223;27;98115;-72
2021/04/08 06:18:22;;;;;;;9.93;3.70;;;;;;;6.03;55.45;100180.31;5049854;27;101538;-73
2021/04/08 06:20:48;;;;;;;11.87;4.73;;;;;;;5.82;56.27;100181.53;5023630;27;101007;-73
2021/04/08 06:23:14;;;;;;;12.97;4.07;;;;;;;5.80;56.33;100183.28;5047229;27;97202;-73
2021/04/08 06:25:39;;;;;;;9.73;3.73;;;;;;;5.59;57.07;100192.31;5031650;27;97511;-74
2021/04/08 06:28:05;;;;;;;11.27;4.17;;;;;;;5.52;56.77;100197.63;5012803;27;99858;-73
2021/04/08 06:30:31;;;;;;;12.90;4.20;;;;;;;5.34;57.37;100194.41;5046275;27;101340;-74
2021/04/08 06:32:56;;;;;;;9.30;3.97;;;;;;;5.19;57.57;100187.69;5032328;27;97357;-74
2021/04/08 06:35:22;;;;;;;12.23;4.43;;;;;;;5.04;58.36;100207.88;5030891;27;97604;-74
2021/04/08 06:37:51;;;;;;;8.23;3.80;;;;;;;5.03;59.23;100209.59;5043740;27;99761;-73
2021/04/08 06:40:21;;;;;;;10.03;3.90;;;;;;;5.12;58.98;100213.81;5048768;27;101443;-74
2021/04/08 06:42:48;;;;;;;9.63;3.60;;;;;;;5.24;59.09;100212.81;5037470;27;99881;-74
2021/04/08 06:45:16;;;;;;;9.57;4.40;;;;;;;5.15;59.43;100217.25;5041691;27;97306;-76
2021/04/08 06:48:30;;;;;;;14.83;4.73;;;;;;;5.24;59.81;100218.88;5038603;27;99319;-77
2021/04/08 06:50:55;;;;;;;12.20;4.10;;;;;;;5.24;60.12;100231.88;5049856;27;101116;-74
2021/04/08 06:53:21;;;;;;;9.53;3.73;;;;;;;5.14;59.95;100230.28;5015618;27;99641;-74
2021/04/08 06:55:48;;;;;;;7.50;3.87;;;;;;;5.03;60.35;100224.34;5037349;27;98064;-74
2021/04/08 06:58:16;;;;;;;8.93;4.47;;;;;;;4.92;60.64;100227.97;5032946;27;101076;-74
2021/04/08 07:00:42;;;;;;;12.07;4.37;;;;;;;4.96;61.11;100233.97;5045958;27;101605;-75
2021/04/08 07:03:08;;;;;;;7.20;4.40;;;;;;;4.86;61.56;100248.84;5050425;27;97330;-77
2021/04/08 07:05:34;;;;;;;10.93;4.10;;;;;;;4.92;61.73;100245.31;5019812;27;96974;-75
2021/04/08 07:08:00;;;;;;;8.73;4.67;;;;;;;5.06;60.54;100243.41;5048918;27;101060;-73
2021/04/08 07:10:26;;;;;;;15.03;5.00;;;;;;;5.28;60.38;100251.78;5037616;27;101258;-74
2021/04/08 07:12:55;;;;;;;10.13;4.57;;;;;;;5.16;60.17;100245.00;5033080;27;99279;-76
2021/04/08 07:15:23;;;;;;;16.43;4.50;;;;;;;5.15;60.15;100256.28;5043200;27;97453;-75
2021/04/08 07:17:49;;;;;;;15.30;5.07;;;;;;;5.26;60.28;100260.47;5020110;27;100955;-74
2021/04/08 07:20:14;;;;;;;19.47;5.00;;;;;;;5.26;60.60;100257.88;5036333;27;98213;-74
2021/04/08 07:22:40;;;;;;;13.37;4.47;;;;;;;5.27;60.46;100259.63;5039596;27;97359;-73
2021/04/08 07:25:18;;;;;;;10.23;4.30;;;;;;;5.18;60.02;100269.25;5040383;27;97183;-74
2021/04/08 07:27:44;;;;;;;15.10;4.67;;;;;;;5.40;60.19;100279.38;5048220;27;102013;-76
2021/04/08 07:30:13;;;;;;;18.33;8.83;;;;;;;5.67;59.25;100284.22;5043122;27;101366;-73
2021/04/08 07:32:40;;;;;;;14.10;4.63;;;;;;;5.64;59.32;100278.16;5047762;27;97087;-73
2021/04/08 07:35:15;;;;;;;15.70;4.80;;;;;;;5.66;59.38;100295.50;5035324;27;97308;-73
2021/04/08 07:37:43;;;;;;;9.27;4.33;;;;;;;5.68;59.29;100293.75;5048435;27;98040;-73
2021/04/08 07:40:14;;;;;;;14.47;4.30;;;;;;;5.63;59.04;100294.69;5070613;27;98455;-74
2021/04/08 07:42:40;;;;;;;14.60;4.72;;;;;;;5.56;57.97;100293.91;5057160;27;97224;-73
2021/04/08 07:45:06;;;;;;;10.77;3.40;;;;;;;5.47;58.53;100303.56;5033425;27;97341;-73
2021/04/08 07:47:43;;;;;;;11.47;3.80;;;;;;;5.39;58.63;100311.50;5068550;27;101571;-73
2021/04/08 07:50:16;;;;;;;15.63;3.90;;;;;;;5.39;58.97;100316.72;5041950;27;101621;-75
2021/04/08 07:52:48;;;;;;;13.30;4.13;;;;;;;5.28;58.77;100319.44;5046441;27;97464;-73
2021/04/08 07:55:23;;;;;;;11.38;4.18;;;;;;;5.33;59.02;100320.25;5077007;27;96989;-73
2021/04/08 07:57:49;;;;;;;14.30;4.40;;;;;;;5.54;58.91;100326.06;5028427;27;101464;-74
2021/04/08 08:00:22;;;;;;;16.20;4.43;;;;;;;5.70;58.26;100327.56;5078369;27;97379;-76
2021/04/08 08:02:48;;;;;;;10.13;3.97;;;;;;;5.71;58.39;100331.06;5053426;27;96802;-79
2021/04/08 08:05:27;;;;;;;12.83;4.17;;;;;;;5.71;57.42;100341.47;5025693;27;96938;-74
2021/04/08 08:08:07;;;;;;;11.37;3.50;;;;;;;5.55;57.18;100339.03;5025332;27;101757;-75
2021/04/08 08:10:33;;;;;;;14.27;3.93;;;;;;;5.56;57.64;100348.59;5061847;27;101293;-75
2021/04/08 08:12:59;;;;;;;10.07;4.67;;;;;;;5.60;57.38;100347.66;5031225;27;97213;-74
2021/04/08 08:15:28;;;;;;;14.30;3.90;;;;;;;5.43;57.95;100358.28;5053484;27;97455;-75
2021/04/08 08:17:55;;;;;;;15.53;4.40;;;;;;;5.44;58.42;100367.84;5040312;27;101647;-75
2021/04/08 08:20:21;;;;;;;10.77;3.60;;;;;;;5.60;58.10;100362.44;5035352;27;100767;-75
2021/04/08 08:22:48;;;;;;;10.13;3.57;;;;;;;5.62;57.12;100373.72;5040452;27;97560;-79
2021/04/08 08:25:14;;;;;;;14.30;3.47;;;;;;;5.72;57.21;100367.47;5043204;27;97408;-75
2021/04/08 08:27:48;;;;;;;12.00;3.83;;;;;;;5.89;57.31;100369.84;5049889;27;101122;-75
2021/04/08 08:30:32;;;;;;;13.70;5.13;;;;;;;6.78;56.18;100382.41;5044149;27;101321;-75
2021/04/08 08:33:19;;;;;;;13.20;3.67;;;;;;;7.31;54.76;100371.84;5050388;27;97570;-75
2021/04/08 08:35:45;;;;;;;10.43;4.20;;;;;;;6.82;55.49;100384.94;5041615;27;97229;-80
2021/04/08 08:38:16;;;;;;;12.10;4.07;;;;;;;9.13;51.28;100371.94;5025360;27;100149;-76
2021/04/08 08:40:43;;;;;;;11.25;3.10;;;;;;;8.19;50.53;100386.50;5044344;27;101549;-76
2021/04/08 08:43:10;;;;;;;16.60;4.30;;;;;;;7.75;51.65;100387.50;5028441;27;97308;-75
2021/04/08 08:45:36;;;;;;;7.22;2.85;;;;;;;9.40;48.94;100387.81;5048172;27;97910;-75
2021/04/08 08:48:09;;;;;;;9.07;3.00;;;;;;;8.26;50.53;100406.41;5028337;27;100101;-75
2021/04/08 08:50:36;;;;;;;14.02;4.32;;;;;;;7.50;52.57;100406.28;5026928;27;99604;-75
2021/04/08 08:53:03;;;;;;;10.52;3.97;;;;;;;7.13;52.72;100398.31;5030964;27;97313;-75
2021/04/08 08:55:28;;;;;;;8.77;3.43;;;;;;;6.81;54.07;100410.19;5030885;27;96945;-76
2021/04/08 08:57:55;;;;;;;15.37;5.37;;;;;;;7.00;53.81;100422.00;5046692;27;101292;-75
2021/04/08 09:00:24;;;;;;;14.27;4.33;;;;;;;6.69;54.19;100418.19;5036757;27;98060;-75
2021/04/08 09:02:49;;;;;;;9.30;3.97;;;;;;;6.56;54.25;100423.63;5038248;27;97242;-78
2021/04/08 09:05:20;;;;;;;8.87;3.93;;;;;;;6.29;54.89;100429.28;5052637;27;96955;-75
2021/04/08 09:07:50;;;;;;;9.20;4.13;;;;;;;6.05;56.24;100427.84;5036427;27;100846;-78
2021/04/08 09:10:27;;;;;;;10.43;4.30;;;;;;;5.87;56.64;100440.22;5053255;27;98768;-75
2021/04/08 09:12:53;;;;;;;16.00;5.53;;;;;;;5.66;56.99;100456.13;5032261;27;97245;-75
2021/04/08 09:15:19;;;;;;;11.07;4.10;;;;;;;5.44;57.89;100458.13;5047913;27;96924;-74
2021/04/08 09:17:48;;;;;;;10.93;4.67;;;;;;;5.40;58.41;100454.66;5047052;27;101038;-74
2021/04/08 09:20:18;;;;;;;14.83;4.70;;;;;;;5.40;58.60;100469.44;5065513;27;98263;-72
2021/04/08 09:22:59;;;;;;;18.83;4.90;;;;;;;5.48;58.85;100461.53;5049080;27;97134;-73
2021/04/08 09:25:56;;;;;;;10.87;3.70;;;;;;;5.49;59.10;100473.66;5067578;27;97230;-74
2021/04/08 09:28:22;;;;;;;18.40;4.70;;;;;;;5.50;58.83;100471.06;5046979;27;101809;-76
2021/04/08 09:33:48;;;;;;;16.67;4.83;;;;;;;5.42;58.86;100473.75;5071708;27;96701;-74
2021/04/08 09:36:23;;;;;;;16.00;5.43;;;;;;;5.39;59.54;100471.16;5054589;27;96986;-74
2021/04/08 09:39:09;;;;;;;9.20;3.90;;;;;;;5.36;59.13;100483.38;5054744;27;101201;-78
2021/04/08 09:41:42;;;;;;;16.83;4.63;;;;;;;5.31;59.54;100491.22;5058614;27;100867;-74
2021/04/08 09:44:08;;;;;;;9.50;3.50;;;;;;;5.43;59.24;100492.81;5071530;27;96893;-74
2021/04/08 09:46:42;;;;;;;9.80;4.07;;;;;;;5.50;58.47;100484.09;5051077;27;97164;-74
2021/04/08 09:49:10;;;;;;;28.43;5.90;;;;;;;5.45;58.67;100506.69;5044098;27;100925;-74
2021/04/08 09:51:44;;;;;;;14.40;4.07;;;;;;;5.38;57.97;100495.50;5054478;27;99609;-74
2021/04/08 09:54:16;;;;;;;10.90;3.50;;;;;;;5.43;57.93;100498.03;5052762;27;96797;-74
2021/04/08 09:56:45;;;;;;;16.10;4.57;;;;;;;5.65;57.89;100501.28;5033872;27;97072;-75
2021/04/08 09:59:12;;;;;;;14.67;3.97;;;;;;;5.57;56.98;100503.97;5049091;27;99723;-74
2021/04/08 10:01:38;;;;;;;15.50;3.77;;;;;;;5.85;57.28;100512.34;5027365;27;100981;-73
2021/04/08 10:04:17;;;;;;;12.87;4.17;;;;;;;6.00;56.63;100506.13;5044616;27;97003;-74
2021/04/08 10:06:43;;;;;;;10.20;3.43;;;;;;;6.03;56.64;100508.69;5051236;27;97139;-73
2021/04/08 10:09:19;;;;;;;13.53;4.20;;;;;;;6.09;56.47;100518.16;5031754;27;100655;-73
2021/04/08 10:11:46;;;;;;;10.70;3.60;;;;;;;6.07;56.31;100510.34;5047355;27;100977;-73
2021/04/08 10:14:31;;;;;;;14.00;4.27;;;;;;;5.98;56.25;100514.81;5070633;27;97165;-74
2021/04/08 10:17:00;;;;;;;10.77;3.83;;;;;;;5.93;55.89;100522.69;5021395;27;97312;-74
2021/04/08 10:19:35;;;;;;;13.70;4.90;;;;;;;5.82;56.01;100514.97;5054406;27;101256;-75
2021/04/08 10:22:01;;;;;;;10.20;3.40;;;;;;;5.84;56.46;100526.22;5036287;27;98007;-73
2021/04/08 10:24:36;;;;;;;11.87;3.50;;;;;;;5.73;56.91;100524.63;5044981;27;97319;-73
2021/04/08 10:27:11;;;;;;;12.73;4.53;;;;;;;5.57;57.26;100526.53;5017932;27;96905;-75
2021/04/08 10:29:37;;;;;;;10.70;4.27;;;;;;;5.45;57.66;100527.53;5049698;27;101546;-74
2021/04/08 10:32:02;;;;;;;13.60;4.07;;;;;;;5.35;57.82;100550.19;5033467;27;100497;-75
2021/04/08 10:34:37;;;;;;;10.97;3.50;;;;;;;5.33;58.88;100561.50;5050244;27;99693;-75
2021/04/08 10:37:03;;;;;;;13.03;3.77;;;;;;;5.32;59.93;100558.00;5039568;27;97241;-75
2021/04/08 10:39:39;;;;;;;12.20;3.70;;;;;;;5.30;60.16;100564.13;5056163;27;97554;-75
2021/04/08 10:42:09;;;;;;;13.50;3.60;;;;;;;5.15;60.86;100565.97;5032588;27;101519;-75
2021/04/08 10:44:36;;;;;;;11.33;3.83;;;;;;;5.15;61.27;100570.31;5042486;27;97180;-75
2021/04/08 10:47:08;;;;;;;9.90;3.10;;;;;;;5.14;61.66;100577.25;5036087;27;97580;-75
2021/04/08 10:49:36;;;;;;;15.30;3.60;;;;;;;5.09;61.79;100571.22;5049959;27;101330;-75
2021/04/08 10:52:04;;;;;;;12.43;4.03;;;;;;;5.17;61.59;100578.97;5043781;27;102091;-75
2021/04/08 10:54:31;;;;;;;18.00;3.77;;;;;;;5.20;61.36;100577.19;5030863;27;99347;-75
2021/04/08 10:56:58;;;;;;;16.20;5.03;;;;;;;5.38;61.64;100577.91;5041355;27;97540;-75
2021/04/08 10:59:24;;;;;;;11.00;3.73;;;;;;;5.53;61.04;100585.59;5045158;27;101383;-75
2021/04/08 11:01:51;;;;;;;14.13;5.07;;;;;;;5.61;60.21;100581.19;5045515;27;98013;-75
2021/04/08 11:04:21;;;;;;;15.20;4.30;;;;;;;5.77;60.31;100581.91;5028999;27;97510;-75
2021/04/08 11:06:48;;;;;;;13.93;4.87;;;;;;;5.83;59.08;100580.97;5035515;27;97257;-74
2021/04/08 11:09:23;;;;;;;11.93;4.10;;;;;;;5.75;60.16;100588.00;5010075;27;101314;-74
2021/04/08 11:11:49;;;;;;;13.77;4.30;;;;;;;5.65;60.22;100588.09;5044654;27;101336;-74
2021/04/08 11:14:27;;;;;;;12.10;4.73;;;;;;;5.76;60.49;100589.72;5050344;27;97136;-74
2021/04/08 11:16:54;;;;;;;13.87;4.47;;;;;;;5.80;61.54;100589.69;5042351;27;97471;-74
2021/04/08 11:19:20;;;;;;;15.30;4.20;;;;;;;5.84;61.66;100586.16;5038203;27;99405;-74
2021/04/08 11:21:47;;;;;;;13.80;4.70;;;;;;;5.79;61.57;100594.88;5042433;27;101005;-74
2021/04/08 11:24:14;;;;;;;17.27;4.80;;;;;;;5.84;62.12;100596.56;5040393;27;99637;-74
2021/04/08 11:27:07;;;;;;;10.73;4.37;;;;;;;5.93;61.59;100595.66;5018352;27;99602;-74
2021/04/08 11:29:32;;;;;;;16.70;4.97;;;;;;;5.95;61.77;100598.25;5033144;27;101274;-74
2021/04/08 11:32:04;;;;;;;12.03;5.17;;;;;;;6.00;61.31;100604.28;5036550;27;101013;-74
2021/04/08 11:34:44;;;;;;;14.80;5.10;;;;;;;6.12;61.02;100596.31;5028566;27;97804;-74
2021/04/08 11:37:11;;;;;;;15.87;5.47;;;;;;;6.28;61.43;100599.59;5025414;27;99654;-74
2021/04/08 11:39:37;;;;;;;13.40;3.87;;;;;;;6.41;58.78;100600.34;5045150;27;98093;-74